Time;durP1;ratioP1;P1;durP2;ratioP2;P2;SDS_P1;SDS_P2;PMS_P1;PMS_P2;Temp;Humidity;BMP_temperature;BMP_pressure;BME280_temperature;BME280_humidity;BME280_pressure;Samples;Min_cycle;Max_cycle;Signal;HPM_P1;HPM_P2
2023/05/07 00:02:01;;;;;;;3.55;1.83;;;21.40;1.00;;;;;;4833532;29;20053;-42
2023/05/07 00:04:28;;;;;;;1.55;1.08;;;21.40;1.00;;;;;;4832430;29;20042;-43
2023/05/07 00:06:55;;;;;;;2.17;1.45;;;21.40;1.00;;;;;;4843098;29;20054;-45
2023/05/07 00:09:22;;;;;;;2.88;1.30;;;21.40;1.00;;;;;;4835385;29;20522;-43
2023/05/07 00:11:49;;;;;;;3.33;1.40;;;21.40;1.00;;;;;;4843412;29;20563;-44
2023/05/07 00:14:15;;;;;;;3.63;2.42;;;21.40;1.00;;;;;;4843021;29;20559;-44
2023/05/07 00:16:42;;;;;;;4.68;1.75;;;21.40;1.00;;;;;;4841740;29;20053;-45
2023/05/07 00:19:09;;;;;;;6.80;2.17;;;21.30;1.00;;;;;;4837001;29;20045;-42
2023/05/07 00:21:36;;;;;;;3.67;1.92;;;21.40;1.00;;;;;;4843137;29;20046;-42
2023/05/07 00:24:03;;;;;;;2.95;1.92;;;21.30;1.00;;;;;;4843104;29;20110;-43
2023/05/07 00:26:30;;;;;;;11.18;2.10;;;21.30;1.00;;;;;;4842991;29;20048;-43
2023/05/07 00:28:56;;;;;;;4.75;1.80;;;21.30;1.00;;;;;;4842939;29;20053;-43
2023/05/07 00:31:23;;;;;;;2.85;1.88;;;21.30;1.00;;;;;;4885521;23;20094;-43
2023/05/07 00:33:50;;;;;;;2.08;1.75;;;21.30;1.00;;;;;;4832946;29;20057;-43
2023/05/07 00:36:17;;;;;;;4.18;1.80;;;21.30;1.00;;;;;;4833821;29;20642;-43
2023/05/07 00:38:44;;;;;;;2.75;2.28;;;21.30;1.00;;;;;;4841400;29;20046;-45
2023/05/07 00:41:10;;;;;;;2.13;1.60;;;21.30;1.00;;;;;;4836658;29;20042;-43
2023/05/07 00:43:38;;;;;;;3.40;2.05;;;21.30;1.00;;;;;;4842574;29;20038;-43
2023/05/07 00:46:05;;;;;;;6.85;2.10;;;21.30;1.00;;;;;;4841266;29;20488;-44
2023/05/07 00:48:32;;;;;;;5.32;2.17;;;21.30;1.00;;;;;;4835374;29;20046;-43
2023/05/07 00:50:59;;;;;;;3.03;1.83;;;21.30;1.00;;;;;;4841294;29;20057;-42
2023/05/07 00:53:26;;;;;;;4.38;2.40;;;21.30;1.00;;;;;;4841444;29;20085;-43
2023/05/07 00:55:53;;;;;;;3.30;1.27;;;21.30;1.00;;;;;;4840894;29;20126;-43
2023/05/07 00:58:20;;;;;;;5.25;2.25;;;21.30;1.00;;;;;;4841155;29;20046;-44
2023/05/07 01:00:47;;;;;;;2.97;1.88;;;21.30;1.00;;;;;;4842631;29;20394;-45
2023/05/07 01:03:14;;;;;;;3.47;2.10;;;21.30;1.00;;;;;;4840935;29;20066;-44
2023/05/07 01:05:43;;;;;;;4.20;2.50;;;21.30;1.00;;;;;;4833141;29;20050;-45
2023/05/07 01:08:12;;;;;;;6.03;2.10;;;21.30;1.00;;;;;;4842454;29;20049;-44
2023/05/07 01:10:42;;;;;;;2.63;1.65;;;21.20;1.00;;;;;;4841919;29;20252;-44
2023/05/07 01:13:10;;;;;;;3.88;1.70;;;21.30;1.00;;;;;;4840825;29;20144;-43
2023/05/07 01:15:38;;;;;;;3.83;1.50;;;21.20;1.00;;;;;;4840517;29;20046;-43
2023/05/07 01:18:05;;;;;;;2.17;1.85;;;21.20;1.00;;;;;;4840766;29;20142;-44
2023/05/07 01:20:34;;;;;;;2.35;1.83;;;21.30;1.00;;;;;;4840704;29;20050;-44
2023/05/07 01:23:02;;;;;;;3.28;2.08;;;21.20;1.00;;;;;;4825678;29;20446;-43
2023/05/07 01:25:30;;;;;;;2.58;1.77;;;21.20;1.00;;;;;;4841954;29;20042;-45
2023/05/07 01:28:01;;;;;;;3.90;2.20;;;21.20;1.00;;;;;;4842046;29;20042;-43
2023/05/07 01:30:32;;;;;;;2.40;1.85;;;21.20;1.00;;;;;;4842741;29;20052;-44
2023/05/07 01:33:13;;;;;;;2.10;1.52;;;21.20;1.00;;;;;;4832643;29;20403;-43
2023/05/07 01:35:43;;;;;;;1.85;1.60;;;21.20;1.00;;;;;;4833745;29;20077;-44
2023/05/07 01:38:10;;;;;;;2.63;1.73;;;21.20;1.00;;;;;;4834114;29;20073;-43
2023/05/07 01:40:37;;;;;;;3.25;2.33;;;21.20;1.00;;;;;;4832833;29;20042;-43
2023/05/07 01:43:05;;;;;;;2.25;1.67;;;21.20;1.00;;;;;;4825629;29;20077;-43
2023/05/07 01:45:34;;;;;;;3.53;1.88;;;21.20;1.00;;;;;;4840552;29;20106;-44
2023/05/07 01:48:02;;;;;;;3.50;1.98;;;21.20;1.00;;;;;;4840321;29;20071;-44
2023/05/07 01:50:31;;;;;;;2.70;1.77;;;21.10;1.00;;;;;;4832898;29;20249;-43
2023/05/07 01:52:58;;;;;;;4.30;1.73;;;21.10;1.00;;;;;;4841813;29;20052;-43
2023/05/07 01:55:25;;;;;;;3.63;1.75;;;21.10;1.00;;;;;;4840488;29;20090;-43
2023/05/07 01:57:52;;;;;;;2.47;1.63;;;21.10;1.00;;;;;;4840001;29;20094;-43
2023/05/07 02:00:19;;;;;;;3.17;1.90;;;21.10;1.00;;;;;;4840386;29;20133;-43
2023/05/07 02:02:46;;;;;;;1.88;1.60;;;21.10;1.00;;;;;;4834912;29;20049;-43
2023/05/07 02:05:26;;;;;;;2.92;1.80;;;21.10;1.00;;;;;;4832286;29;20049;-43
2023/05/07 02:07:58;;;;;;;2.83;1.48;;;21.10;1.00;;;;;;4839693;29;20054;-44
2023/05/07 02:10:27;;;;;;;2.85;2.05;;;21.10;1.00;;;;;;4840081;29;20143;-45
2023/05/07 02:12:54;;;;;;;3.00;1.52;;;21.10;1.00;;;;;;4832650;29;20060;-44
2023/05/07 02:15:21;;;;;;;3.55;1.60;;;21.10;1.00;;;;;;4839841;29;20148;-44
2023/05/07 02:18:06;;;;;;;3.15;1.80;;;21.10;1.00;;;;;;4840108;29;20050;-44
2023/05/07 02:20:33;;;;;;;3.25;1.70;;;21.10;1.00;;;;;;4834005;29;20090;-44
2023/05/07 02:23:00;;;;;;;2.95;1.95;;;21.10;1.00;;;;;;4843072;29;20048;-45
2023/05/07 02:25:29;;;;;;;2.65;1.92;;;21.10;1.00;;;;;;4843776;29;20459;-42
2023/05/07 02:27:57;;;;;;;3.90;1.48;;;21.00;1.00;;;;;;4843861;29;20050;-42
2023/05/07 02:30:33;;;;;;;4.82;2.10;;;21.10;1.00;;;;;;4843599;29;20129;-43
2023/05/07 02:33:01;;;;;;;2.20;1.60;;;21.10;1.00;;;;;;4871698;23;20054;-43
2023/05/07 02:35:28;;;;;;;2.92;1.88;;;21.00;1.00;;;;;;4835107;29;20121;-44
2023/05/07 02:37:55;;;;;;;3.05;1.80;;;21.00;1.00;;;;;;4834616;29;20054;-42
2023/05/07 02:40:23;;;;;;;3.05;1.70;;;21.00;1.00;;;;;;4843640;29;20394;-46
2023/05/07 02:42:50;;;;;;;2.95;1.85;;;21.00;1.00;;;;;;4836012;29;20050;-42
2023/05/07 02:45:17;;;;;;;1.92;1.45;;;21.00;1.00;;;;;;4843405;29;20066;-43
2023/05/07 02:47:46;;;;;;;6.10;1.83;;;21.00;1.00;;;;;;4843548;29;20050;-44
2023/05/07 02:50:13;;;;;;;1.95;1.50;;;21.00;1.00;;;;;;4839329;29;20141;-43
2023/05/07 02:52:40;;;;;;;3.45;1.92;;;21.00;1.00;;;;;;4839902;29;20110;-43
2023/05/07 02:55:07;;;;;;;3.15;1.65;;;21.00;1.00;;;;;;4844509;29;20517;-43
2023/05/07 02:57:34;;;;;;;2.00;1.60;;;21.00;1.00;;;;;;4843343;29;20410;-44
2023/05/07 03:00:16;;;;;;;2.67;1.60;;;21.00;1.00;;;;;;4843122;29;20050;-44
2023/05/07 03:03:02;;;;;;;2.88;2.10;;;21.00;1.00;;;;;;4990134;23;20058;-44
2023/05/07 03:05:30;;;;;;;2.55;1.60;;;21.00;1.00;;;;;;4800724;29;20058;-42
2023/05/07 03:07:56;;;;;;;3.53;1.60;;;21.00;1.00;;;;;;4804858;29;20149;-43
2023/05/07 03:10:23;;;;;;;3.33;1.40;;;21.00;1.00;;;;;;4802666;29;20039;-44
2023/05/07 03:12:50;;;;;;;2.63;1.58;;;21.00;1.00;;;;;;4800226;29;20134;-43
2023/05/07 03:15:17;;;;;;;2.63;1.95;;;21.00;1.00;;;;;;4813999;29;20043;-44
2023/05/07 03:17:44;;;;;;;2.15;1.58;;;21.00;1.00;;;;;;4806593;29;20740;-43
2023/05/07 03:20:11;;;;;;;1.77;1.58;;;21.00;1.00;;;;;;4807740;29;20085;-43
2023/05/07 03:22:40;;;;;;;1.90;1.08;;;20.90;1.00;;;;;;4821620;29;20075;-43
2023/05/07 03:25:08;;;;;;;2.00;1.40;;;21.00;1.00;;;;;;4821105;29;20096;-43
2023/05/07 03:27:35;;;;;;;2.20;1.70;;;21.00;1.00;;;;;;4821308;29;20419;-43
2023/05/07 03:30:02;;;;;;;1.70;1.58;;;20.90;1.00;;;;;;4821413;29;20419;-44
2023/05/07 03:32:28;;;;;;;2.05;1.40;;;21.00;1.00;;;;;;4806398;29;20055;-43
2023/05/07 03:34:55;;;;;;;3.63;1.85;;;20.90;1.00;;;;;;4821561;29;20061;-43
2023/05/07 03:37:22;;;;;;;1.80;1.50;;;20.90;1.00;;;;;;4806167;29;20061;-44
2023/05/07 03:39:49;;;;;;;3.08;1.60;;;20.90;1.00;;;;;;4821304;29;20109;-43
2023/05/07 03:42:17;;;;;;;4.32;2.60;;;20.90;1.00;;;;;;4821796;29;20369;-44
2023/05/07 03:44:45;;;;;;;5.57;1.73;;;20.90;1.00;;;;;;4813444;29;20078;-44
2023/05/07 03:47:13;;;;;;;2.75;1.63;;;20.90;1.00;;;;;;4807549;29;20042;-44
2023/05/07 03:49:40;;;;;;;1.80;1.33;;;20.90;1.00;;;;;;4821534;29;20065;-44
2023/05/07 03:52:06;;;;;;;2.42;1.40;;;20.90;1.00;;;;;;4821700;29;20146;-45
2023/05/07 03:54:33;;;;;;;2.88;1.45;;;20.90;1.00;;;;;;4807906;29;20104;-44
2023/05/07 03:57:00;;;;;;;1.80;1.60;;;20.90;1.00;;;;;;4807620;29;20504;-43
2023/05/07 03:59:27;;;;;;;3.58;1.40;;;20.90;1.00;;;;;;4821997;29;20043;-43
2023/05/07 04:01:54;;;;;;;2.17;1.70;;;20.90;1.00;;;;;;4821760;29;20051;-43
2023/05/07 04:04:23;;;;;;;3.30;1.50;;;20.90;1.00;;;;;;4816974;29;20507;-45
2023/05/07 04:06:50;;;;;;;3.65;1.92;;;20.90;1.00;;;;;;4819333;29;20083;-44
2023/05/07 04:09:17;;;;;;;3.25;2.00;;;20.90;1.00;;;;;;4821020;29;20051;-44
2023/05/07 04:11:45;;;;;;;2.95;1.70;;;20.90;1.00;;;;;;4821022;29;20082;-43
2023/05/07 04:14:12;;;;;;;2.55;1.30;;;20.80;1.00;;;;;;4799811;29;20049;-43
2023/05/07 04:16:39;;;;;;;1.83;1.30;;;20.90;1.00;;;;;;4821352;29;20568;-43
2023/05/07 04:19:07;;;;;;;2.97;1.63;;;20.90;1.00;;;;;;4821171;29;20038;-44
2023/05/07 04:21:34;;;;;;;2.25;1.55;;;20.80;1.00;;;;;;4821250;29;20039;-43
2023/05/07 04:24:03;;;;;;;2.17;1.23;;;20.80;1.00;;;;;;4821202;29;20055;-43
2023/05/07 04:26:30;;;;;;;1.80;1.38;;;20.80;1.00;;;;;;4821294;29;20411;-42
2023/05/07 04:28:58;;;;;;;3.38;1.73;;;20.80;1.00;;;;;;4820103;29;20107;-43
2023/05/07 04:31:31;;;;;;;1.90;1.20;;;20.80;1.00;;;;;;4820170;29;20076;-43
2023/05/07 04:37:10;;;;;;;2.15;1.45;;;20.80;1.00;;;;;;4791604;29;20081;-44
2023/05/07 04:39:37;;;;;;;2.33;1.40;;;20.80;1.00;;;;;;4802120;29;20074;-45
2023/05/07 04:42:05;;;;;;;2.35;1.65;;;20.80;1.00;;;;;;4805548;29;20092;-43
2023/05/07 04:44:34;;;;;;;1.88;1.42;;;20.80;1.00;;;;;;4804492;29;20070;-42
2023/05/07 04:47:01;;;;;;;1.50;1.20;;;20.80;1.00;;;;;;4806187;29;20496;-43
2023/05/07 04:49:28;;;;;;;3.30;1.95;;;20.80;1.00;;;;;;4805241;29;20055;-42
2023/05/07 04:51:56;;;;;;;2.50;1.75;;;20.80;1.00;;;;;;4804289;29;20059;-42
2023/05/07 04:54:23;;;;;;;2.17;1.33;;;20.80;1.00;;;;;;4798995;29;20058;-43
2023/05/07 04:56:50;;;;;;;2.60;1.40;;;20.80;1.00;;;;;;4805140;29;20057;-45
2023/05/07 04:59:17;;;;;;;1.65;1.08;;;20.80;1.00;;;;;;4805402;29;20054;-46
2023/05/07 05:01:44;;;;;;;2.30;1.40;;;20.80;1.00;;;;;;4807213;29;20053;-44
2023/05/07 05:04:10;;;;;;;2.55;1.20;;;20.70;1.00;;;;;;4804947;29;20043;-43
2023/05/07 05:06:39;;;;;;;1.83;1.25;;;20.80;1.00;;;;;;4865297;23;20510;-44
2023/05/07 05:09:07;;;;;;;1.83;1.00;;;20.70;1.00;;;;;;4821574;29;20046;-43
2023/05/07 05:11:34;;;;;;;2.13;1.40;;;20.70;1.00;;;;;;4819504;29;20167;-44
2023/05/07 05:14:01;;;;;;;2.92;1.67;;;20.70;1.00;;;;;;4823454;29;20121;-43
2023/05/07 05:16:28;;;;;;;2.92;1.45;;;20.80;1.00;;;;;;4819172;29;20053;-45
2023/05/07 05:18:55;;;;;;;3.50;1.23;;;20.70;1.00;;;;;;4825636;29;20717;-44
2023/05/07 05:21:22;;;;;;;2.15;1.13;;;20.70;1.00;;;;;;4825111;29;20057;-43
2023/05/07 05:23:52;;;;;;;3.53;1.55;;;20.70;1.00;;;;;;4817226;29;20050;-42
2023/05/07 05:26:22;;;;;;;1.33;1.05;;;20.70;1.00;;;;;;4825194;29;20046;-45
2023/05/07 05:28:49;;;;;;;2.03;1.60;;;20.70;1.00;;;;;;4824150;29;20069;-44
2023/05/07 05:31:18;;;;;;;2.35;1.42;;;20.70;1.00;;;;;;4823945;29;20050;-45
2023/05/07 05:33:48;;;;;;;2.90;1.80;;;20.70;1.00;;;;;;4823655;29;20050;-44
2023/05/07 05:36:15;;;;;;;2.30;1.80;;;20.70;1.00;;;;;;4947949;23;20071;-44
2023/05/07 05:38:44;;;;;;;2.17;1.50;;;20.70;1.00;;;;;;4820302;29;20050;-43
2023/05/07 05:41:11;;;;;;;1.80;1.45;;;20.70;1.00;;;;;;4821520;29;20046;-49
2023/05/07 05:43:38;;;;;;;1.27;1.08;;;20.70;1.00;;;;;;4835849;29;20050;-46
2023/05/07 05:46:06;;;;;;;2.17;1.30;;;20.70;1.00;;;;;;4816158;29;20138;-46
2023/05/07 05:48:33;;;;;;;2.42;1.20;;;20.70;1.00;;;;;;4824097;29;20114;-44
2023/05/07 05:51:01;;;;;;;1.83;1.33;;;20.70;1.00;;;;;;4824365;29;20161;-44
2023/05/07 05:53:28;;;;;;;1.83;1.30;;;20.70;1.00;;;;;;4813181;29;20549;-44
2023/05/07 05:55:55;;;;;;;1.65;1.30;;;20.70;1.00;;;;;;4821179;29;20407;-49
2023/05/07 05:58:21;;;;;;;2.03;1.35;;;20.70;1.00;;;;;;4823825;29;20058;-44
2023/05/07 06:00:54;;;;;;;2.05;1.25;;;20.70;1.00;;;;;;4824183;29;20137;-46
2023/05/07 06:03:23;;;;;;;2.58;1.23;;;20.70;1.00;;;;;;4824364;29;20046;-44
2023/05/07 06:05:52;;;;;;;3.07;1.70;;;20.70;1.00;;;;;;4839413;23;20456;-41
2023/05/07 06:08:20;;;;;;;1.52;1.17;;;20.70;1.00;;;;;;4827221;29;20259;-46
2023/05/07 06:10:47;;;;;;;3.13;1.35;;;20.70;1.00;;;;;;4824212;29;20051;-44
2023/05/07 06:13:15;;;;;;;2.08;1.33;;;20.70;1.00;;;;;;4824511;29;20476;-48
2023/05/07 06:15:42;;;;;;;1.75;1.33;;;20.70;1.00;;;;;;4818858;29;20061;-48
2023/05/07 06:18:11;;;;;;;1.88;1.52;;;20.70;1.00;;;;;;4823541;29;20073;-43
2023/05/07 06:20:39;;;;;;;2.70;1.75;;;20.70;1.00;;;;;;4824769;29;20058;-48
2023/05/07 06:23:11;;;;;;;3.55;2.00;;;20.70;1.00;;;;;;4825497;29;20066;-44
2023/05/07 06:25:38;;;;;;;3.33;1.50;;;20.70;1.00;;;;;;4824811;29;20046;-44
2023/05/07 06:28:06;;;;;;;2.50;1.95;;;20.70;1.00;;;;;;4824982;29;20133;-44
2023/05/07 06:30:35;;;;;;;2.17;1.73;;;20.70;1.00;;;;;;4824742;29;20058;-46
2023/05/07 06:33:02;;;;;;;2.33;1.67;;;20.70;1.00;;;;;;4818381;29;20038;-46
2023/05/07 06:35:29;;;;;;;4.53;2.15;;;20.70;1.00;;;;;;4824587;29;20049;-48
2023/05/07 06:37:56;;;;;;;3.10;1.67;;;20.70;1.00;;;;;;4930849;23;20582;-46
2023/05/07 06:40:26;;;;;;;2.80;1.75;;;20.60;1.00;;;;;;4835356;29;20049;-45
2023/05/07 06:42:53;;;;;;;2.70;1.75;;;20.60;1.00;;;;;;4836047;29;20443;-44
2023/05/07 06:45:46;;;;;;;2.55;2.10;;;20.60;1.00;;;;;;4821163;29;20149;-46
2023/05/07 06:48:13;;;;;;;9.30;6.63;;;20.60;1.00;;;;;;4818870;29;20042;-43
2023/05/07 06:50:49;;;;;;;10.52;7.05;;;20.60;1.00;;;;;;4825487;29;20050;-46
2023/05/07 06:53:17;;;;;;;13.05;8.50;;;20.60;1.00;;;;;;4825062;29;20558;-47
2023/05/07 06:55:44;;;;;;;11.02;9.15;;;20.60;1.00;;;;;;4817817;29;20050;-44
2023/05/07 06:58:12;;;;;;;13.93;9.40;;;20.60;1.00;;;;;;4822757;29;20141;-46
2023/05/07 07:00:40;;;;;;;13.10;9.75;;;20.60;1.00;;;;;;4806679;29;20484;-48
2023/05/07 07:03:07;;;;;;;11.63;9.50;;;20.50;1.00;;;;;;4826451;29;20137;-47
2023/05/07 07:05:35;;;;;;;11.95;9.32;;;20.50;1.00;;;;;;4821394;29;20047;-46
2023/05/07 07:08:03;;;;;;;14.57;9.18;;;20.50;1.00;;;;;;4812419;29;20043;-44
2023/05/07 07:10:29;;;;;;;20.58;10.20;;;20.50;1.00;;;;;;4818550;29;20047;-43
2023/05/07 07:12:56;;;;;;;13.43;10.10;;;20.50;1.00;;;;;;4818718;29;20050;-45
2023/05/07 07:15:25;;;;;;;13.07;9.45;;;20.50;1.00;;;;;;4827963;29;20082;-44
2023/05/07 07:17:53;;;;;;;15.98;9.73;;;20.50;1.00;;;;;;4819863;29;20050;-43
2023/05/07 07:20:22;;;;;;;19.70;10.05;;;20.50;1.00;;;;;;4824765;29;20507;-44
2023/05/07 07:22:48;;;;;;;12.38;9.50;;;20.50;1.00;;;;;;4819017;29;20694;-46
2023/05/07 07:25:16;;;;;;;14.75;10.63;;;20.50;1.00;;;;;;4821376;29;20042;-44
2023/05/07 07:27:43;;;;;;;19.30;11.38;;;20.40;1.00;;;;;;4822152;29;20066;-43
2023/05/07 07:30:12;;;;;;;19.20;9.75;;;20.40;1.00;;;;;;4829746;29;20549;-45
2023/05/07 07:32:42;;;;;;;12.85;9.23;;;20.40;1.00;;;;;;4829171;29;20054;-48
2023/05/07 07:35:09;;;;;;;14.15;9.60;;;20.40;1.00;;;;;;4828875;29;20050;-47
2023/05/07 07:38:10;;;;;;;13.20;9.43;;;20.40;1.00;;;;;;4860298;23;20439;31
2023/05/07 07:40:36;;;;;;;14.15;10.20;;;20.40;1.00;;;;;;4802284;29;20319;-47
2023/05/07 07:43:06;;;;;;;16.00;9.98;;;20.40;1.00;;;;;;4807203;29;20104;-44
2023/05/07 07:45:33;;;;;;;14.70;9.52;;;20.40;1.00;;;;;;4800234;29;20512;-45
2023/05/07 07:48:00;;;;;;;15.30;10.73;;;20.40;1.00;;;;;;4805654;29;20580;-44
2023/05/07 07:50:29;;;;;;;11.93;9.82;;;20.30;1.00;;;;;;4800747;29;20392;-42
2023/05/07 07:53:12;;;;;;;11.90;9.43;;;20.30;1.00;;;;;;4804060;29;20055;-44
2023/05/07 07:55:40;;;;;;;14.93;10.40;;;20.40;1.00;;;;;;4801831;29;20051;-43
2023/05/07 07:58:08;;;;;;;14.60;9.68;;;20.30;1.00;;;;;;4800442;29;20088;-43
2023/05/07 08:00:36;;;;;;;14.93;11.27;;;20.30;1.00;;;;;;4803344;29;20047;-44
2023/05/07 08:03:03;;;;;;;15.07;10.77;;;20.30;1.00;;;;;;4803825;29;20108;-44
2023/05/07 08:05:34;;;;;;;17.80;11.20;;;20.30;1.00;;;;;;4798140;29;20042;-44
2023/05/07 08:11:03;;;;;;;16.90;10.88;;;20.30;1.00;;;;;;4813988;29;20047;-44
2023/05/07 08:13:32;;;;;;;14.75;10.05;;;20.30;1.00;;;;;;4799452;29;20134;-47
2023/05/07 08:15:59;;;;;;;14.00;10.75;;;20.30;1.00;;;;;;4805492;29;20053;-44
2023/05/07 08:18:28;;;;;;;15.63;11.52;;;20.30;1.00;;;;;;4798201;29;20070;-46
2023/05/07 08:20:57;;;;;;;14.68;11.25;;;20.30;1.00;;;;;;4805723;29;20047;-45
2023/05/07 08:23:26;;;;;;;14.68;11.35;;;20.30;1.00;;;;;;4807276;29;20042;-43
2023/05/07 08:25:53;;;;;;;19.08;11.73;;;20.30;1.00;;;;;;4805022;29;20130;-44
2023/05/07 08:28:21;;;;;;;18.65;12.43;;;20.30;1.00;;;;;;4790433;29;20058;-43
2023/05/07 08:30:48;;;;;;;15.38;11.55;;;20.30;1.00;;;;;;4805425;29;20061;-46
2023/05/07 08:33:15;;;;;;;16.58;11.82;;;20.30;1.00;;;;;;4804911;29;20080;-50
2023/05/07 08:35:42;;;;;;;18.90;12.75;;;20.20;1.00;;;;;;4804904;29;20055;-44
2023/05/07 08:38:11;;;;;;;18.42;11.15;;;20.20;1.00;;;;;;4805020;29;20103;-45
2023/05/07 08:40:40;;;;;;;18.17;11.15;;;20.20;1.00;;;;;;4820749;29;20050;-44
2023/05/07 08:43:14;;;;;;;12.93;10.32;;;20.30;1.00;;;;;;4803195;29;20081;-46
2023/05/07 08:45:45;;;;;;;15.45;11.65;;;20.20;1.00;;;;;;4799538;29;20074;-44
2023/05/07 08:48:17;;;;;;;20.05;11.45;;;20.30;1.00;;;;;;4804974;29;20046;-45
2023/05/07 08:50:53;;;;;;;17.52;10.35;;;20.30;1.00;;;;;;4804942;29;20051;-44
2023/05/07 08:53:21;;;;;;;15.27;9.85;;;20.40;1.00;;;;;;4804379;29;20146;-46
2023/05/07 08:55:49;;;;;;;18.40;9.50;;;20.30;1.00;;;;;;4804809;29;20058;-45
2023/05/07 08:58:16;;;;;;;13.82;9.13;;;20.30;1.00;;;;;;4819972;29;20051;-43
2023/05/07 09:00:43;;;;;;;12.55;8.80;;;20.40;1.00;;;;;;4804988;29;20051;-43
2023/05/07 09:03:14;;;;;;;14.43;9.02;;;20.40;1.00;;;;;;4804572;29;20066;-49
2023/05/07 09:05:44;;;;;;;10.25;7.88;;;20.40;1.00;;;;;;4790142;29;20503;-45
2023/05/07 09:08:16;;;;;;;11.00;6.90;;;20.40;1.00;;;;;;4804626;29;20047;-43
2023/05/07 09:10:45;;;;;;;8.38;6.03;;;20.40;1.00;;;;;;4869760;23;20057;-43
2023/05/07 09:13:14;;;;;;;9.75;6.13;;;20.50;1.00;;;;;;4826359;29;20050;-43
2023/05/07 09:15:41;;;;;;;9.40;6.70;;;20.50;1.00;;;;;;4832928;29;20041;-43
2023/05/07 09:18:08;;;;;;;7.72;5.63;;;20.50;1.00;;;;;;4840655;29;20069;-45
2023/05/07 09:20:37;;;;;;;10.32;5.75;;;20.50;1.00;;;;;;4833339;29;20057;-43
2023/05/07 09:23:06;;;;;;;8.48;5.75;;;20.60;1.00;;;;;;4840785;29;20074;-43
2023/05/07 09:25:35;;;;;;;6.85;4.70;;;20.60;1.00;;;;;;4840530;29;20049;-43
2023/05/07 09:28:10;;;;;;;7.88;5.55;;;20.60;1.00;;;;;;4833003;29;20084;-43
2023/05/07 09:30:37;;;;;;;6.55;4.72;;;20.60;1.00;;;;;;4840698;29;20106;-43
2023/05/07 09:33:07;;;;;;;7.82;5.55;;;20.60;1.00;;;;;;4840630;29;20050;-43
2023/05/07 09:35:37;;;;;;;9.82;5.65;;;20.60;1.00;;;;;;4840380;29;20098;-43
2023/05/07 09:38:09;;;;;;;14.10;9.02;;;20.60;1.00;;;;;;4839753;29;20511;-43
2023/05/07 09:40:36;;;;;;;14.80;10.55;;;20.60;1.00;;;;;;4835706;29;20042;-44
2023/05/07 09:43:12;;;;;;;15.25;10.95;;;20.70;1.00;;;;;;4840409;29;20145;-43
2023/05/07 09:45:51;;;;;;;17.08;12.50;;;20.70;1.00;;;;;;4832718;29;20404;-43
2023/05/07 09:48:20;;;;;;;18.65;11.02;;;20.70;1.00;;;;;;4840409;29;20098;-45
2023/05/07 09:50:51;;;;;;;19.63;11.48;;;20.70;1.00;;;;;;4840649;29;20054;-46
2023/05/07 09:53:22;;;;;;;;;;;20.70;1.00;;;;;;4840702;29;20076;-45
2023/05/07 09:55:51;;;;;;;15.32;12.30;;;20.70;1.00;;;;;;4840261;29;20027;-43
2023/05/07 09:58:20;;;;;;;18.38;13.85;;;20.70;1.00;;;;;;4841612;29;20132;-45
2023/05/07 10:00:47;;;;;;;18.30;12.48;;;20.70;1.00;;;;;;4840010;29;20125;-43
2023/05/07 10:03:17;;;;;;;17.70;13.35;;;20.70;1.00;;;;;;4840204;29;20502;-43
2023/05/07 10:05:52;;;;;;;18.85;13.77;;;20.70;1.00;;;;;;4839967;29;20050;-44
2023/05/07 10:08:20;;;;;;;18.45;13.18;;;20.70;1.00;;;;;;4832658;29;20047;-43
2023/05/07 10:10:50;;;;;;;21.33;14.32;;;20.70;1.00;;;;;;4881754;23;20094;-44
2023/05/07 10:13:22;;;;;;;19.05;13.10;;;20.70;1.00;;;;;;4834916;29;20066;-44
2023/05/07 10:15:53;;;;;;;23.92;13.30;;;20.70;1.00;;;;;;4829194;29;20503;-45
2023/05/07 10:18:29;;;;;;;19.50;14.10;;;20.70;1.00;;;;;;4831590;29;20061;-44
2023/05/07 10:21:22;;;;;;;17.15;12.82;;;20.70;1.00;;;;;;4832812;29;20403;-43
2023/05/07 10:24:05;;;;;;;17.08;13.85;;;20.70;1.00;;;;;;4834577;29;20129;-46
2023/05/07 10:26:34;;;;;;;16.30;12.30;;;20.70;1.00;;;;;;4823379;29;20145;-43
2023/05/07 10:29:07;;;;;;;20.92;13.73;;;20.70;1.00;;;;;;4832232;29;20054;-44
2023/05/07 10:31:45;;;;;;;18.65;12.93;;;20.70;1.00;;;;;;4840000;29;20419;-44
2023/05/07 10:34:22;;;;;;;20.13;13.30;;;20.70;1.00;;;;;;4839742;29;20054;-44
2023/05/07 10:36:51;;;;;;;18.02;13.00;;;20.70;1.00;;;;;;4839628;29;20122;-45
2023/05/07 10:39:21;;;;;;;22.73;15.70;;;20.70;1.00;;;;;;4833170;29;20068;-44
2023/05/07 10:41:48;;;;;;;18.67;14.40;;;20.70;1.00;;;;;;4860027;24;20404;-44
2023/05/07 10:44:28;;;;;;;21.33;13.25;;;20.70;1.00;;;;;;4820856;29;20070;-43
2023/05/07 10:47:15;;;;;;;18.45;13.57;;;20.70;1.00;;;;;;4820775;29;20046;-43
2023/05/07 10:49:45;;;;;;;19.50;13.73;;;20.70;1.00;;;;;;4819420;29;20242;-44
2023/05/07 10:52:25;;;;;;;21.00;15.88;;;20.70;1.00;;;;;;4824708;29;20050;-44
2023/05/07 10:55:14;;;;;;;23.42;14.93;;;20.70;1.00;;;;;;4820466;29;20579;-43
2023/05/07 10:57:43;;;;;;;19.88;15.38;;;20.70;1.00;;;;;;4826473;29;20046;-43
2023/05/07 11:00:39;;;;;;;19.58;14.30;;;20.70;1.00;;;;;;4817334;29;20058;-43
2023/05/07 11:03:11;;;;;;;21.08;14.77;;;20.70;1.00;;;;;;4824680;29;20093;-43
2023/05/07 11:06:13;;;;;;;19.40;14.38;;;20.70;1.00;;;;;;4824741;29;20058;-43
2023/05/07 11:09:01;;;;;;;20.27;12.90;;;20.70;1.00;;;;;;4824583;29;20064;-44
2023/05/07 11:11:55;;;;;;;20.35;14.95;;;20.80;1.00;;;;;;4825567;29;20499;-43
2023/05/07 11:14:42;;;;;;;23.67;14.73;;;20.80;1.00;;;;;;4811716;29;20587;-43
2023/05/07 11:17:12;;;;;;;20.85;13.48;;;20.80;1.00;;;;;;4809261;29;20051;-44
2023/05/07 11:19:52;;;;;;;20.25;13.50;;;20.80;1.00;;;;;;4824317;29;20118;-44
2023/05/07 11:22:43;;;;;;;19.55;12.98;;;20.80;1.00;;;;;;4839702;29;20152;-43
2023/05/07 11:25:19;;;;;;;19.45;13.82;;;20.80;1.00;;;;;;4823723;29;20054;-44
2023/05/07 11:27:52;;;;;;;24.10;13.30;;;20.80;1.00;;;;;;4839726;29;20057;-45
2023/05/07 11:30:19;;;;;;;18.33;13.15;;;20.80;1.00;;;;;;4835484;29;20085;-43
2023/05/07 11:32:48;;;;;;;17.40;12.98;;;20.80;1.00;;;;;;4819245;29;20133;-43
2023/05/07 11:35:17;;;;;;;21.88;15.00;;;20.90;1.00;;;;;;4811552;29;20084;-43
2023/05/07 11:37:48;;;;;;;21.02;14.93;;;20.80;1.00;;;;;;4839321;29;20050;-44
2023/05/07 11:40:15;;;;;;;20.67;13.40;;;20.80;1.00;;;;;;4831434;29;20062;-43
2023/05/07 11:42:42;;;;;;;23.08;16.55;;;20.90;1.00;;;;;;4943740;23;20032;-42
2023/05/07 11:45:10;;;;;;;18.75;14.18;;;20.90;1.00;;;;;;4802357;29;20051;-43
2023/05/07 11:47:37;;;;;;;26.83;14.45;;;20.90;1.00;;;;;;4796474;29;20060;-43
2023/05/07 11:50:10;;;;;;;18.20;13.80;;;20.90;1.00;;;;;;4803736;29;20043;-42
2023/05/07 11:52:38;;;;;;;19.98;13.68;;;20.90;1.00;;;;;;4806943;29;20051;-42
2023/05/07 11:55:07;;;;;;;19.20;15.15;;;20.90;1.00;;;;;;4805403;29;20081;-42
2023/05/07 11:57:35;;;;;;;21.85;14.35;;;20.90;1.00;;;;;;4805956;29;20053;-42
2023/05/07 12:00:04;;;;;;;20.42;14.38;;;20.90;1.00;;;;;;4806849;29;20100;-43
2023/05/07 12:02:38;;;;;;;19.30;13.88;;;20.90;1.00;;;;;;4807034;29;20139;-43
2023/05/07 12:05:05;;;;;;;18.70;13.95;;;20.90;1.00;;;;;;4806857;29;20445;-42
2023/05/07 12:07:34;;;;;;;20.02;13.85;;;20.90;1.00;;;;;;4794691;29;20047;-44
2023/05/07 12:10:07;;;;;;;19.80;13.57;;;20.90;1.00;;;;;;4805841;29;20085;-43
2023/05/07 12:12:52;;;;;;;21.33;13.60;;;20.90;1.00;;;;;;4807104;29;20399;-42
2023/05/07 12:15:22;;;;;;;18.85;13.82;;;21.00;1.00;;;;;;4804885;29;20047;-43
2023/05/07 12:17:50;;;;;;;19.23;13.23;;;21.00;1.00;;;;;;4806786;29;20413;-44
2023/05/07 12:20:17;;;;;;;20.30;14.40;;;21.00;1.00;;;;;;4806484;29;20131;-44
2023/05/07 12:22:44;;;;;;;19.83;13.73;;;21.00;1.00;;;;;;4802418;29;20073;-44
2023/05/07 12:25:11;;;;;;;20.15;13.73;;;21.00;1.00;;;;;;4803428;29;20051;-44
2023/05/07 12:27:40;;;;;;;22.58;14.77;;;21.00;1.00;;;;;;4806362;29;20050;-44
2023/05/07 12:30:10;;;;;;;22.33;14.68;;;21.00;1.00;;;;;;4806315;29;20099;-44
2023/05/07 12:32:37;;;;;;;22.27;14.38;;;21.00;1.00;;;;;;4806450;29;20049;-44
2023/05/07 12:35:06;;;;;;;19.38;13.25;;;21.00;1.00;;;;;;4792758;29;20095;-44
2023/05/07 12:37:33;;;;;;;20.65;14.88;;;21.00;1.00;;;;;;4805369;29;20047;-44
2023/05/07 12:40:10;;;;;;;18.90;13.65;;;21.00;1.00;;;;;;4803241;29;20066;-44
2023/05/07 12:42:39;;;;;;;21.75;14.88;;;21.00;1.00;;;;;;4794223;29;20466;-44
2023/05/07 12:45:10;;;;;;;18.80;13.57;;;21.00;1.00;;;;;;4846793;24;20050;-43
2023/05/07 12:47:37;;;;;;;18.58;14.18;;;21.10;1.00;;;;;;4840740;29;20124;-43
2023/05/07 12:50:07;;;;;;;20.63;13.65;;;21.10;1.00;;;;;;4835305;29;20574;-43
2023/05/07 12:52:34;;;;;;;18.80;13.75;;;21.10;1.00;;;;;;4835633;29;20034;-43
2023/05/07 12:55:08;;;;;;;20.15;13.85;;;21.10;1.00;;;;;;4834489;29;20095;-43
2023/05/07 12:57:40;;;;;;;19.20;12.88;;;21.10;1.00;;;;;;4832109;29;20050;-43
2023/05/07 13:00:08;;;;;;;21.77;12.82;;;21.10;1.00;;;;;;4835745;29;20394;-43
2023/05/07 13:02:40;;;;;;;18.75;12.70;;;21.10;1.00;;;;;;4842051;29;20487;-43
2023/05/07 13:05:08;;;;;;;19.85;13.43;;;21.10;1.00;;;;;;4842231;29;20041;-44
2023/05/07 13:07:36;;;;;;;20.30;13.65;;;21.10;1.00;;;;;;4842241;29;20582;-44